Terminal Aerodrome Forecast
Issued by NWS

Home | Current Version | Previous Version | Text Only | Print | Product List | Glossary On
Versions: 1 2 3 4 5 6 7 8 9 10 11 12 13 14
000
FTUS41 KCAR 220600 AAA
TAFBHB
TAF AMD
KBHB 220635Z 2207/2306 VRB03KT P6SM SKC
     FM220800 00000KT 4SM BR SCT002
     FM221100 22005KT P6SM SKC
     FM221700 22010G20KT P6SM SKC
     FM230000 21007KT P6SM SKC
     FM230300 21006KT 3SM BR SCT001
      AMD LTD TO CLD VIS AND WIND=

USA.gov is the U.S. government's official web portal to all federal, state and local government web resources and services.